Time;durP1;ratioP1;P1;durP2;ratioP2;P2;SDS_P1;SDS_P2;PMS_P1;PMS_P2;Temp;Humidity;BMP_temperature;BMP_pressure;BME280_temperature;BME280_humidity;BME280_pressure;Samples;Min_cycle;Max_cycle;Signal;HPM_P1;HPM_P2
2021/06/04 00:00:35;;;;;;;6.37;5.83;;;;;;;18.66;88.70;156159.31;5050688;28;20451;-89
2021/06/04 00:03:12;;;;;;;6.00;5.37;;;;;;;18.64;89.91;156152.75;5084664;28;20451;-89
2021/06/04 00:05:49;;;;;;;6.10;5.60;;;;;;;18.58;88.36;156138.44;5084863;28;20446;-89
2021/06/04 00:08:25;;;;;;;6.63;5.80;;;;;;;18.58;88.40;156138.44;5050743;28;20973;-89
2021/06/04 00:11:03;;;;;;;6.50;5.90;;;;;;;18.54;88.05;156128.00;5051137;28;20806;-88
2021/06/04 00:13:41;;;;;;;7.27;6.67;;;;;;;18.48;89.86;156112.38;5054649;28;20434;-89
2021/06/04 00:16:20;;;;;;;8.03;7.23;;;;;;;18.45;91.01;156104.53;5054742;28;20435;-89
2021/06/04 00:18:56;;;;;;;6.23;5.67;;;;;;;18.40;91.31;156090.22;5059161;28;20544;-89
2021/06/04 00:21:34;;;;;;;6.37;5.87;;;;;;;18.38;90.48;156084.97;5076142;28;20410;-89
2021/06/04 00:24:09;;;;;;;6.97;6.37;;;;;;;18.36;88.92;156081.06;5059177;28;20549;-89
2021/06/04 00:26:47;;;;;;;6.27;5.77;;;;;;;18.37;91.63;156082.38;5054315;28;20481;-89
2021/06/04 00:29:23;;;;;;;6.50;5.90;;;;;;;18.34;89.88;156075.88;5088175;28;20541;-89
2021/06/04 00:32:00;;;;;;;6.50;5.90;;;;;;;18.31;87.95;156068.06;5055431;28;20419;-89
2021/06/04 00:34:35;;;;;;;8.90;5.30;;;;;;;18.31;87.40;156066.75;5039142;28;20447;-88
2021/06/04 00:37:10;;;;;;;6.23;5.63;;;;;;;18.29;88.25;156061.53;5087956;28;20945;-89
2021/06/04 00:39:46;;;;;;;6.60;5.90;;;;;;;18.28;87.29;156060.22;5058254;28;20933;-89
2021/06/04 00:42:24;;;;;;;6.23;5.73;;;;;;;18.27;86.99;156058.91;5108323;28;20473;-89
2021/06/04 00:45:01;;;;;;;7.07;6.37;;;;;;;18.25;86.56;156053.72;5074367;28;20838;-89
2021/06/04 00:47:40;;;;;;;6.13;5.63;;;;;;;18.27;86.52;156056.34;5092213;28;20458;-89
2021/06/04 00:50:20;;;;;;;6.07;5.47;;;;;;;18.24;87.20;156049.84;5058602;28;20944;-89
2021/06/04 00:52:58;;;;;;;6.40;5.80;;;;;;;18.21;86.93;156043.28;5058631;28;20438;-89
2021/06/04 00:55:34;;;;;;;6.20;5.70;;;;;;;18.22;86.00;156044.59;5058476;28;20538;-88
2021/06/04 00:58:13;;;;;;;8.10;5.70;;;;;;;18.21;86.12;156042.00;5046388;28;20541;-88
2021/06/04 01:00:50;;;;;;;7.47;5.63;;;;;;;18.21;87.54;156043.28;5071665;28;20929;-89
2021/06/04 01:03:31;;;;;;;7.23;6.53;;;;;;;18.21;86.91;156043.28;5087566;28;20446;-89
2021/06/04 01:06:09;;;;;;;7.40;6.40;;;;;;;18.18;88.00;156035.50;5073918;28;21011;-88
2021/06/04 01:09:06;;;;;;;6.10;5.57;;;;;;;18.20;89.04;156040.69;5073987;28;20474;-89
2021/06/04 01:11:53;;;;;;;6.30;5.47;;;;;;;18.14;89.66;156025.06;5107645;28;20442;-88
2021/06/04 01:14:35;;;;;;;5.93;5.43;;;;;;;18.18;89.78;156035.50;5074571;28;20453;-89
2021/06/04 01:17:15;;;;;;;5.83;5.13;;;;;;;18.13;90.15;156022.50;5058116;28;20438;-88
2021/06/04 01:19:56;;;;;;;6.80;5.50;;;;;;;18.09;89.56;156010.72;5107846;28;20449;-89
2021/06/04 01:23:09;;;;;;;7.93;6.27;;;;;;;18.07;86.95;156006.84;5106827;28;20525;-89
2021/06/04 01:25:48;;;;;;;5.60;5.10;;;;;;;18.07;88.20;156006.84;4992958;28;20477;-88
2021/06/04 01:28:27;;;;;;;6.80;6.10;;;;;;;18.07;87.44;156006.84;5065090;28;20478;-89
2021/06/04 01:31:06;;;;;;;5.90;5.40;;;;;;;18.02;87.19;155993.81;5090330;28;21024;-88
2021/06/04 01:33:46;;;;;;;5.43;4.93;;;;;;;17.93;88.30;155970.38;5073641;28;20442;-88
2021/06/04 01:36:26;;;;;;;5.73;5.17;;;;;;;17.89;91.17;155959.97;5073430;28;20481;-89
2021/06/04 01:39:08;;;;;;;7.20;5.50;;;;;;;17.80;91.04;155936.53;5064082;28;20471;-88
2021/06/04 01:41:48;;;;;;;5.67;4.70;;;;;;;17.78;89.35;155930.00;5037727;28;20938;-88
2021/06/04 01:44:28;;;;;;;4.83;4.43;;;;;;;17.76;90.00;155926.13;5086978;28;20447;-88
2021/06/04 01:47:06;;;;;;;5.87;5.37;;;;;;;17.70;89.62;155909.19;5086730;28;20431;-88
2021/06/04 01:49:45;;;;;;;6.47;5.80;;;;;;;17.66;92.49;155900.06;5109754;28;20454;-88
2021/06/04 01:52:23;;;;;;;5.33;4.83;;;;;;;17.62;94.51;155889.66;5100046;28;20474;-88
2021/06/04 01:55:07;;;;;;;5.80;5.20;;;;;;;17.53;93.76;155866.22;5078240;28;20418;-88
2021/06/04 01:57:49;;;;;;;5.50;5.00;;;;;;;17.54;92.93;155870.16;5070770;28;20942;-88
2021/06/04 02:00:27;;;;;;;6.30;5.80;;;;;;;17.55;91.80;155871.47;5072972;28;20419;-88
2021/06/04 02:03:17;;;;;;;5.77;5.27;;;;;;;17.54;93.84;155868.84;5090840;28;20445;-89
2021/06/04 02:06:06;;;;;;;6.17;5.57;;;;;;;17.54;92.96;155868.84;5105710;28;20537;-88
2021/06/04 02:08:48;;;;;;;6.97;6.30;;;;;;;17.51;91.39;155860.97;5056886;28;20481;-89
2021/06/04 02:11:29;;;;;;;7.33;6.63;;;;;;;17.51;93.04;155860.97;5056954;28;20481;-88
2021/06/04 02:14:10;;;;;;;7.77;6.80;;;;;;;17.52;92.03;155864.91;5057194;28;20810;-88
2021/06/04 02:16:59;;;;;;;6.60;6.00;;;;;;;17.58;92.20;155879.22;5072353;28;20427;-89
2021/06/04 02:19:44;;;;;;;7.60;6.80;;;;;;;17.48;92.23;155854.47;5090409;28;20443;-89
2021/06/04 02:22:32;;;;;;;13.03;7.67;;;;;;;17.48;93.98;155853.16;5089626;28;20450;-89
2021/06/04 02:25:19;;;;;;;8.40;7.60;;;;;;;17.50;92.90;155858.38;5090241;28;20482;-88
2021/06/04 02:27:59;;;;;;;8.73;7.93;;;;;;;17.48;93.39;155853.16;5065633;28;20454;-89
2021/06/04 02:30:40;;;;;;;8.60;7.73;;;;;;;17.43;95.31;155841.44;5052092;28;20771;-88
2021/06/04 02:33:19;;;;;;;8.50;7.80;;;;;;;17.38;96.25;155828.44;5052018;28;20792;-89
2021/06/04 02:35:56;;;;;;;9.10;8.20;;;;;;;17.32;95.64;155811.50;5051962;28;20443;-89
2021/06/04 02:38:39;;;;;;;9.00;8.10;;;;;;;17.31;97.73;155808.91;5041009;28;20455;-88
2021/06/04 02:41:18;;;;;;;10.00;8.13;;;;;;;17.29;98.75;155805.00;5105819;28;20438;-88
2021/06/04 02:43:57;;;;;;;9.57;8.57;;;;;;;17.31;100.00;155810.22;5056399;28;20450;-88
2021/06/04 02:46:37;;;;;;;9.40;8.50;;;;;;;17.30;100.00;155807.63;5071831;28;20415;-88
2021/06/04 02:49:15;;;;;;;10.27;9.27;;;;;;;17.29;100.00;155803.72;5056349;28;20477;-89
2021/06/04 02:51:56;;;;;;;9.53;8.63;;;;;;;17.20;100.00;155781.59;5071822;28;20789;-88
2021/06/04 02:54:33;;;;;;;9.30;8.40;;;;;;;17.19;100.00;155778.97;5089993;28;20449;-88
2021/06/04 02:57:13;;;;;;;12.07;9.77;;;;;;;17.16;100.00;155771.16;5088604;28;20846;-88
2021/06/04 02:59:49;;;;;;;10.97;9.97;;;;;;;17.10;100.00;155755.56;5069576;28;20442;-88
2021/06/04 03:02:28;;;;;;;10.20;9.10;;;;;;;17.09;100.00;155752.94;5051671;28;20420;-88
2021/06/04 03:05:08;;;;;;;10.90;9.87;;;;;;;17.10;100.00;155754.25;5051866;28;20534;-88
2021/06/04 03:07:44;;;;;;;10.10;9.20;;;;;;;17.09;100.00;155752.94;5069097;28;20494;-88
2021/06/04 03:10:27;;;;;;;9.27;8.40;;;;;;;17.10;100.00;155755.56;5036341;28;20799;-88
2021/06/04 03:13:04;;;;;;;10.47;9.47;;;;;;;17.08;100.00;155749.06;5085487;28;20462;-88
2021/06/04 03:15:46;;;;;;;10.77;9.77;;;;;;;17.05;100.00;155743.81;5051615;28;20443;-89
2021/06/04 03:18:30;;;;;;;10.33;9.40;;;;;;;17.01;100.00;155733.44;5080225;28;20458;-88
2021/06/04 03:21:08;;;;;;;9.77;8.87;;;;;;;17.01;100.00;155732.13;5084929;28;20438;-89
2021/06/04 03:23:44;;;;;;;9.80;9.00;;;;;;;17.00;100.00;155729.50;5035917;28;20450;-88
2021/06/04 03:26:25;;;;;;;11.00;10.00;;;;;;;16.96;100.00;155720.44;5052513;28;20463;-88
2021/06/04 03:29:07;;;;;;;10.30;9.20;;;;;;;16.99;100.00;155728.25;5066543;28;20486;-88
2021/06/04 03:31:45;;;;;;;11.83;8.93;;;;;;;16.97;100.00;155723.00;5055299;28;20544;-88
2021/06/04 03:34:24;;;;;;;10.40;9.40;;;;;;;16.99;100.00;155728.25;5071559;28;20905;-88
2021/06/04 03:37:02;;;;;;;9.30;8.50;;;;;;;16.98;100.00;155724.31;5104978;28;20434;-89
2021/06/04 03:39:41;;;;;;;10.30;9.30;;;;;;;16.98;100.00;155724.31;5090376;28;20450;-89
2021/06/04 03:42:26;;;;;;;8.70;7.90;;;;;;;16.98;100.00;155724.31;5068932;28;20439;-89
2021/06/04 03:45:05;;;;;;;9.33;8.50;;;;;;;17.00;100.00;155730.81;5051401;28;20442;-89
2021/06/04 03:47:41;;;;;;;9.67;8.77;;;;;;;17.04;100.00;155741.25;5050705;28;20458;-89
2021/06/04 03:50:19;;;;;;;8.87;8.07;;;;;;;17.08;100.00;155749.06;5035524;28;20466;-88
2021/06/04 03:52:54;;;;;;;11.33;9.00;;;;;;;17.11;100.00;155758.16;5084388;28;20447;-89
2021/06/04 03:55:29;;;;;;;9.60;8.47;;;;;;;17.16;100.00;155769.84;5050906;28;20807;-89
2021/06/04 03:58:05;;;;;;;10.83;9.00;;;;;;;17.17;100.00;155772.47;5058276;28;20449;-88
2021/06/04 04:00:42;;;;;;;10.23;8.53;;;;;;;17.19;100.00;155777.66;5070927;28;20588;-89
2021/06/04 04:03:21;;;;;;;10.97;9.13;;;;;;;17.21;100.00;155782.91;5070308;28;20458;-89
2021/06/04 04:05:57;;;;;;;9.30;8.50;;;;;;;17.25;100.00;155793.28;5084402;28;20764;-88
2021/06/04 04:08:32;;;;;;;9.70;8.80;;;;;;;17.31;100.00;155808.91;5084155;28;20887;-88
2021/06/04 04:11:08;;;;;;;10.20;9.30;;;;;;;17.50;100.00;155858.38;5084357;28;20438;-89
2021/06/04 04:13:43;;;;;;;8.97;7.90;;;;;;;17.73;100.00;155918.31;5052281;28;20446;-89
2021/06/04 04:16:18;;;;;;;9.30;8.40;;;;;;;17.95;100.00;155975.56;5035346;28;20922;-88
2021/06/04 04:18:53;;;;;;;9.87;8.97;;;;;;;18.20;100.00;156039.38;5035560;28;20443;-89
2021/06/04 04:21:30;;;;;;;9.60;8.70;;;;;;;18.36;99.01;156081.06;5051587;28;20446;-89
2021/06/04 04:24:10;;;;;;;8.43;7.63;;;;;;;18.56;97.44;156133.19;5068849;28;20491;-89
2021/06/04 04:26:47;;;;;;;9.27;8.47;;;;;;;18.72;97.17;156174.91;5051654;28;20467;-88
2021/06/04 04:29:22;;;;;;;8.70;7.80;;;;;;;19.02;96.18;156251.78;5050661;28;20478;-89
2021/06/04 04:31:59;;;;;;;8.40;7.60;;;;;;;19.27;95.38;156316.91;5084531;28;20450;-90
2021/06/04 04:34:34;;;;;;;9.00;7.40;;;;;;;19.48;93.92;156369.13;5084605;28;20443;-88
2021/06/04 04:37:12;;;;;;;8.10;7.40;;;;;;;19.42;93.09;156356.09;5050712;28;20479;-88
2021/06/04 04:39:48;;;;;;;7.90;7.20;;;;;;;19.37;93.19;156343.06;5084321;28;20824;-88
2021/06/04 04:42:24;;;;;;;8.90;8.00;;;;;;;19.38;93.07;156345.66;5054684;28;20481;-89
2021/06/04 04:45:00;;;;;;;7.83;7.13;;;;;;;19.34;92.55;156335.19;5093566;28;20443;-88
2021/06/04 04:47:35;;;;;;;8.53;7.73;;;;;;;19.26;92.87;156314.34;5104025;28;20438;-88
2021/06/04 04:50:12;;;;;;;8.37;7.67;;;;;;;19.17;94.03;156290.88;5106672;28;20910;-88
2021/06/04 04:52:49;;;;;;;8.80;8.00;;;;;;;19.11;94.16;156275.25;5086661;28;20442;-88
2021/06/04 04:55:27;;;;;;;7.60;6.90;;;;;;;18.97;94.43;156238.75;5093450;28;20545;-89
2021/06/04 04:58:02;;;;;;;8.73;7.97;;;;;;;18.94;95.04;156230.94;5055379;28;20445;-89
2021/06/04 05:00:39;;;;;;;10.23;8.53;;;;;;;18.94;95.16;156230.94;5108485;28;20449;-89
2021/06/04 05:03:15;;;;;;;10.20;8.00;;;;;;;18.98;96.08;156240.06;5108235;28;20481;-90
2021/06/04 05:05:50;;;;;;;8.30;7.60;;;;;;;18.96;97.00;156234.81;5108152;28;20438;-89
2021/06/04 05:08:27;;;;;;;9.20;8.40;;;;;;;18.98;96.34;156241.38;5092088;28;20473;-89
2021/06/04 05:11:03;;;;;;;9.47;8.33;;;;;;;18.97;97.27;156237.44;5058497;28;20438;-89
2021/06/04 05:13:38;;;;;;;8.80;8.00;;;;;;;19.00;97.44;156246.59;5107447;28;20445;-89
2021/06/04 05:16:13;;;;;;;9.00;8.20;;;;;;;19.02;97.35;156251.78;5092102;28;20446;-89
2021/06/04 05:18:49;;;;;;;8.70;7.90;;;;;;;19.06;97.50;156262.19;5108300;28;20541;-89
2021/06/04 05:21:24;;;;;;;8.97;8.07;;;;;;;19.09;97.98;156270.00;5108257;28;20422;-91
2021/06/04 05:24:01;;;;;;;8.77;7.93;;;;;;;19.15;97.64;156285.66;5076494;28;20857;-90
2021/06/04 05:26:37;;;;;;;8.83;8.03;;;;;;;19.23;97.36;156306.53;5075404;28;20462;-89
2021/06/04 05:29:12;;;;;;;9.60;8.70;;;;;;;19.28;96.64;156319.53;5075402;28;20504;-89
2021/06/04 05:31:47;;;;;;;8.50;7.70;;;;;;;19.31;96.43;156327.38;5075225;28;20406;-89
2021/06/04 05:34:22;;;;;;;9.10;8.30;;;;;;;19.33;95.99;156332.56;5073869;28;20450;-90
2021/06/04 05:36:57;;;;;;;8.37;7.67;;;;;;;19.34;95.81;156333.88;5075730;28;20422;-89
2021/06/04 05:39:34;;;;;;;8.47;7.70;;;;;;;19.34;96.35;156333.88;5074010;28;20917;-90
2021/06/04 05:42:09;;;;;;;8.63;7.83;;;;;;;19.41;96.16;156352.16;5108319;28;20438;-89
2021/06/04 05:44:47;;;;;;;9.00;8.30;;;;;;;19.49;95.55;156371.72;5108266;28;20933;-90
2021/06/04 05:47:22;;;;;;;8.63;7.93;;;;;;;19.58;96.18;156395.19;5072565;28;20905;-89
2021/06/04 05:49:57;;;;;;;8.10;7.40;;;;;;;19.69;95.70;156423.88;5107598;28;20434;-90
2021/06/04 05:52:32;;;;;;;8.17;7.47;;;;;;;19.79;94.55;156449.94;5107241;28;20572;-90
2021/06/04 05:55:10;;;;;;;7.37;6.63;;;;;;;19.94;93.26;156489.06;5091452;28;20434;-90
2021/06/04 05:57:45;;;;;;;7.70;6.90;;;;;;;20.18;91.42;156551.66;5102278;28;20443;-90
2021/06/04 06:00:23;;;;;;;7.83;7.13;;;;;;;20.78;88.03;156706.97;5053100;28;20478;-90
2021/06/04 06:02:59;;;;;;;8.03;7.33;;;;;;;21.17;86.67;156807.47;5054949;28;20439;-90
2021/06/04 06:05:34;;;;;;;7.77;7.10;;;;;;;21.61;83.69;156921.00;5053175;28;20439;-90
2021/06/04 06:08:10;;;;;;;6.37;5.80;;;;;;;22.13;80.83;157055.56;5054525;28;20474;-91
2021/06/04 06:10:47;;;;;;;5.97;5.37;;;;;;;22.64;77.64;157188.81;5054261;28;20874;-91
2021/06/04 06:13:23;;;;;;;5.47;5.00;;;;;;;23.13;75.55;157314.28;5054024;28;20474;-92
2021/06/04 06:15:58;;;;;;;5.60;5.10;;;;;;;23.48;70.67;157405.81;5055552;28;20875;-91
2021/06/04 06:18:34;;;;;;;5.10;4.60;;;;;;;23.84;69.37;157499.94;5054768;28;20451;-92
2021/06/04 06:21:09;;;;;;;5.50;5.00;;;;;;;24.22;69.31;157599.31;5087912;28;20537;-93
2021/06/04 06:23:44;;;;;;;5.33;4.20;;;;;;;24.70;63.84;157722.31;5038924;28;20466;-92
2021/06/04 06:26:24;;;;;;;4.50;4.20;;;;;;;24.84;62.58;157758.97;5054482;28;20466;-92
2021/06/04 06:29:00;;;;;;;6.43;5.23;;;;;;;25.11;65.09;157829.63;5087919;28;20569;-93
2021/06/04 06:31:40;;;;;;;4.90;4.40;;;;;;;25.01;64.74;157803.47;5088150;28;20443;-95
2021/06/04 06:34:16;;;;;;;5.70;5.30;;;;;;;25.12;65.85;157832.28;5088749;28;20525;-93
2021/06/04 06:36:51;;;;;;;5.43;5.00;;;;;;;25.49;64.37;157926.53;5087929;28;20805;-93
2021/06/04 06:39:28;;;;;;;6.23;5.63;;;;;;;26.01;63.38;158064.00;5055789;28;20427;-95
2021/06/04 06:42:07;;;;;;;4.20;3.90;;;;;;;25.95;58.72;158046.94;5055886;28;20423;-94
2021/06/04 06:44:43;;;;;;;4.43;4.10;;;;;;;25.33;58.76;157885.91;5089278;28;20451;-94
2021/06/04 06:47:18;;;;;;;4.30;3.90;;;;;;;25.39;58.81;157902.91;5057770;28;20772;-94
2021/06/04 06:49:54;;;;;;;6.47;5.83;;;;;;;25.38;61.40;157900.31;5089971;28;20565;-93
2021/06/04 06:52:30;;;;;;;8.33;6.77;;;;;;;25.36;62.67;157893.78;5054191;28;20427;-94
2021/06/04 06:55:07;;;;;;;5.63;5.00;;;;;;;24.53;63.96;157679.16;5054156;28;20446;-94
2021/06/04 06:57:44;;;;;;;4.93;4.63;;;;;;;24.14;64.84;157578.47;5057905;28;20432;-93
2021/06/04 07:00:24;;;;;;;4.27;3.97;;;;;;;24.12;63.17;157573.19;5056827;28;20408;-94
2021/06/04 07:02:59;;;;;;;5.30;4.90;;;;;;;23.83;64.86;157497.28;5087930;28;20427;-94
2021/06/04 07:05:36;;;;;;;4.87;4.33;;;;;;;23.45;67.43;157399.28;5055125;28;20403;-94
2021/06/04 07:08:12;;;;;;;6.40;5.73;;;;;;;23.69;68.80;157460.72;5088647;28;20475;-94
2021/06/04 07:10:47;;;;;;;5.80;3.80;;;;;;;23.58;66.40;157431.97;5058492;28;20441;-94
2021/06/04 07:13:26;;;;;;;6.30;5.80;;;;;;;23.62;69.00;157442.38;5057259;28;20774;-93
2021/06/04 07:16:04;;;;;;;8.20;5.80;;;;;;;23.61;72.08;157439.81;5091019;28;20852;-93
2021/06/04 07:18:39;;;;;;;7.90;7.13;;;;;;;23.46;71.99;157401.88;5056822;28;20443;-94
2021/06/04 07:21:14;;;;;;;7.60;6.90;;;;;;;23.46;71.84;157401.88;5089071;28;20447;-94
2021/06/04 07:23:50;;;;;;;6.90;6.30;;;;;;;23.47;71.06;157404.50;5055241;28;20431;-94
2021/06/04 07:26:26;;;;;;;7.00;6.40;;;;;;;23.27;71.90;157350.88;5087346;28;20454;-94
2021/06/04 07:29:03;;;;;;;6.77;6.07;;;;;;;23.24;72.39;157344.34;5087690;28;20466;-93
2021/06/04 07:31:38;;;;;;;6.90;6.30;;;;;;;23.17;71.93;157324.69;5055087;28;20449;-93
2021/06/04 07:34:14;;;;;;;6.37;5.67;;;;;;;23.30;71.04;157360.00;5088695;28;20446;-93
2021/06/04 07:36:53;;;;;;;6.50;6.00;;;;;;;23.62;69.08;157443.69;5044181;28;20435;-94
2021/06/04 07:39:31;;;;;;;6.50;5.90;;;;;;;24.08;68.90;157562.75;5097954;28;20435;-93
2021/06/04 07:42:10;;;;;;;6.80;6.20;;;;;;;24.63;67.89;157703.97;5077740;28;20391;-94
2021/06/04 07:44:46;;;;;;;8.83;6.90;;;;;;;25.08;66.07;157820.47;5065403;28;20435;-94
2021/06/04 07:47:21;;;;;;;8.00;7.40;;;;;;;25.34;66.72;157889.81;5054408;28;20435;-94
2021/06/04 07:49:56;;;;;;;7.13;6.50;;;;;;;25.62;65.17;157960.56;5055193;28;20961;-95
2021/06/04 07:52:32;;;;;;;7.73;7.13;;;;;;;25.92;63.15;158039.13;5055160;28;20435;-94
2021/06/04 07:55:12;;;;;;;8.77;7.83;;;;;;;25.99;62.36;158057.44;5055906;28;20416;-95
2021/06/04 07:57:47;;;;;;;7.50;6.80;;;;;;;26.55;62.51;158204.19;5057221;28;20474;-95
2021/06/04 08:00:27;;;;;;;6.40;5.90;;;;;;;26.78;58.27;158261.81;5056357;28;20439;-94
2021/06/04 08:03:04;;;;;;;6.30;5.80;;;;;;;27.18;59.93;158366.63;5073267;28;20442;-95
2021/06/04 08:05:39;;;;;;;8.57;6.27;;;;;;;27.45;59.51;158437.47;5055893;28;20435;-95
2021/06/04 08:08:15;;;;;;;6.17;5.60;;;;;;;28.05;56.36;158593.47;5056228;28;20973;-94
2021/06/04 08:10:51;;;;;;;5.03;4.63;;;;;;;27.70;56.02;158502.97;5056359;28;20482;-95
2021/06/04 08:13:26;;;;;;;6.30;5.80;;;;;;;27.90;55.49;158552.78;5056355;28;20462;-94
2021/06/04 08:16:06;;;;;;;7.93;7.23;;;;;;;27.90;56.42;158552.78;5057084;28;20407;-95
2021/06/04 08:18:42;;;;;;;7.23;6.60;;;;;;;28.11;54.40;158607.91;5056201;28;20423;-95
2021/06/04 08:21:20;;;;;;;6.17;5.77;;;;;;;28.09;54.60;158602.66;5056450;28;20419;-94
2021/06/04 08:23:55;;;;;;;6.07;5.57;;;;;;;28.31;53.74;158661.63;5088787;28;20459;-95
2021/06/04 08:26:33;;;;;;;5.77;5.30;;;;;;;28.46;54.64;158698.38;5087126;28;20471;-94
2021/06/04 08:29:09;;;;;;;5.27;4.77;;;;;;;28.83;54.59;158795.47;5054474;28;20463;-95
2021/06/04 08:31:46;;;;;;;5.80;5.20;;;;;;;29.19;54.28;158889.91;5087323;28;20518;-94
2021/06/04 08:34:21;;;;;;;5.63;5.13;;;;;;;29.30;53.86;158917.50;5058002;28;20431;-94
2021/06/04 08:36:56;;;;;;;5.00;4.60;;;;;;;28.97;50.71;158833.50;5058405;28;20438;-94
2021/06/04 08:39:33;;;;;;;4.77;4.30;;;;;;;28.77;50.92;158781.03;5056570;28;20442;-94
2021/06/04 08:42:19;;;;;;;5.43;5.03;;;;;;;28.92;49.18;158819.06;5057846;28;20921;-94
2021/06/04 08:45:04;;;;;;;3.60;3.30;;;;;;;29.03;47.21;158846.59;5057185;28;20496;-94
2021/06/04 08:47:42;;;;;;;3.77;3.30;;;;;;;29.06;47.78;158854.47;5057187;28;20442;-95
2021/06/04 08:50:27;;;;;;;3.90;3.50;;;;;;;29.34;47.91;158927.97;5058614;28;20407;-95
2021/06/04 08:53:09;;;;;;;3.47;3.17;;;;;;;29.46;45.42;158959.50;5057072;28;20447;-95
2021/06/04 08:55:46;;;;;;;3.63;3.23;;;;;;;29.67;44.78;159014.59;5056888;28;20443;-95
2021/06/04 08:58:40;;;;;;;3.60;3.20;;;;;;;29.66;45.35;159010.66;5091194;28;20546;-95
2021/06/04 09:01:18;;;;;;;4.60;4.20;;;;;;;29.86;46.54;159064.53;5058727;28;20522;-95
2021/06/04 09:03:58;;;;;;;5.63;4.93;;;;;;;29.38;48.95;158939.81;5090406;28;20796;-95
2021/06/04 09:06:38;;;;;;;5.63;5.13;;;;;;;29.13;50.38;158874.16;5090388;28;20981;-95
2021/06/04 09:09:20;;;;;;;8.67;4.57;;;;;;;29.04;51.20;158850.56;5057587;28;20471;-95
2021/06/04 09:11:58;;;;;;;5.70;4.97;;;;;;;29.20;52.50;158891.22;5090737;28;20899;-95
2021/06/04 09:14:33;;;;;;;5.30;4.90;;;;;;;29.26;49.25;158906.97;5057914;28;20767;-96
2021/06/04 09:17:13;;;;;;;5.87;5.40;;;;;;;29.36;49.87;158933.25;5057696;28;20423;-95
2021/06/04 09:19:57;;;;;;;5.73;5.23;;;;;;;29.40;50.62;158943.75;5056319;28;20546;-94
2021/06/04 09:22:36;;;;;;;5.73;5.23;;;;;;;28.85;49.53;158802.03;5089914;28;20424;-95
2021/06/04 09:25:14;;;;;;;7.30;5.50;;;;;;;27.98;51.74;158573.75;5055893;28;21032;-95
2021/06/04 09:27:52;;;;;;;6.20;5.13;;;;;;;28.20;53.05;158631.47;5057032;28;20416;-95
2021/06/04 09:30:34;;;;;;;4.93;4.53;;;;;;;28.20;51.93;158631.47;5056043;28;20485;-95
2021/06/04 09:33:12;;;;;;;5.67;5.07;;;;;;;28.41;54.28;158686.53;5089885;28;20792;-95
2021/06/04 09:36:08;;;;;;;6.10;5.57;;;;;;;27.94;51.54;158564.56;5056472;28;20530;-95
2021/06/04 09:38:46;;;;;;;5.50;5.00;;;;;;;27.46;52.39;158440.06;5057994;28;20435;-96
2021/06/04 09:41:37;;;;;;;5.30;4.83;;;;;;;27.62;51.93;158482.00;5057601;28;20902;-95
2021/06/04 09:44:23;;;;;;;5.40;4.90;;;;;;;27.65;52.10;158489.88;5102118;28;20511;-96
2021/06/04 09:47:02;;;;;;;5.80;5.27;;;;;;;26.89;55.51;158290.66;5073974;28;20434;-96
2021/06/04 09:49:48;;;;;;;6.67;6.00;;;;;;;26.83;53.69;158274.91;5072625;28;20470;-96
2021/06/04 09:52:33;;;;;;;5.40;5.00;;;;;;;26.84;54.27;158278.88;5103120;28;20443;-96
2021/06/04 09:55:19;;;;;;;5.90;5.40;;;;;;;26.81;54.60;158271.00;5099933;28;20518;-96
2021/06/04 09:58:05;;;;;;;6.27;5.70;;;;;;;26.69;54.53;158239.50;5097910;28;20419;-96
2021/06/04 10:00:42;;;;;;;7.00;6.10;;;;;;;26.67;55.11;158232.94;5068665;28;20427;-96
2021/06/04 10:03:30;;;;;;;6.20;5.70;;;;;;;26.51;55.49;158192.34;5066111;28;20419;-96
2021/06/04 10:06:21;;;;;;;7.73;5.73;;;;;;;26.69;55.97;158238.22;5070168;28;20439;-96
2021/06/04 10:09:00;;;;;;;5.43;4.80;;;;;;;26.91;55.05;158295.88;5054544;28;20463;-96
2021/06/04 10:11:50;;;;;;;6.10;5.50;;;;;;;26.30;55.58;158138.66;5066028;28;20439;-96
2021/06/04 10:14:38;;;;;;;6.80;5.30;;;;;;;26.02;56.43;158065.31;5103470;28;20415;-96
2021/06/04 10:20:38;;;;;;;6.90;6.20;;;;;;;25.70;58.39;157982.81;5064301;28;20439;-96
2021/06/04 10:23:17;;;;;;;6.37;5.77;;;;;;;25.90;58.11;158035.19;5067516;28;20494;-96
2021/06/04 10:25:57;;;;;;;5.87;5.37;;;;;;;26.02;57.41;158066.63;5070452;28;20459;-96
2021/06/04 10:28:40;;;;;;;7.00;6.30;;;;;;;25.88;58.18;158029.94;5103463;28;20494;-96
2021/06/04 10:31:44;;;;;;;5.70;4.90;;;;;;;25.87;59.32;158026.00;5069624;28;20467;-96
2021/06/04 10:34:44;;;;;;;5.93;5.00;;;;;;;26.16;60.56;158100.72;5070050;28;20411;-96
2021/06/04 10:37:23;;;;;;;9.20;6.53;;;;;;;26.47;57.28;158183.22;5103974;28;20468;-96
2021/06/04 10:40:05;;;;;;;5.90;5.23;;;;;;;26.09;59.38;158083.63;5070849;28;20431;-96
2021/06/04 10:42:51;;;;;;;5.90;5.30;;;;;;;26.07;58.02;158077.06;5079073;28;20410;-96
2021/06/04 10:45:27;;;;;;;5.57;5.03;;;;;;;25.60;60.27;157956.59;5108155;28;20432;-96
2021/06/04 10:48:15;;;;;;;7.90;6.30;;;;;;;25.40;66.71;157905.53;5060256;28;20872;-93
2021/06/04 10:50:54;;;;;;;12.17;8.07;;;;;;;24.77;88.56;157740.63;5053704;28;20510;-91
2021/06/04 10:53:35;;;;;;;12.57;8.10;;;;;;;24.00;88.96;157541.78;5068776;28;20454;-94
2021/06/04 10:56:13;;;;;;;5.53;4.80;;;;;;;23.52;75.90;157416.25;5053541;28;20431;-91
2021/06/04 10:58:57;;;;;;;6.47;5.87;;;;;;;22.57;80.21;157169.19;5086755;28;20431;-94
2021/06/04 11:01:36;;;;;;;8.50;6.10;;;;;;;21.28;92.16;156836.19;5053175;28;20427;-93
2021/06/04 11:04:19;;;;;;;7.60;6.20;;;;;;;20.78;93.78;156706.97;5086274;28;20427;-92
2021/06/04 11:07:03;;;;;;;9.40;7.20;;;;;;;20.55;100.00;156648.22;5038108;28;20439;-93
2021/06/04 11:09:54;;;;;;;10.00;8.27;;;;;;;20.38;100.00;156603.91;5053875;28;20250;-92
2021/06/04 11:12:53;;;;;;;11.67;7.67;;;;;;;20.35;100.00;156594.75;5053498;28;20448;-94
2021/06/04 11:15:44;;;;;;;8.87;7.70;;;;;;;20.45;100.00;156622.16;5086859;28;20447;-93
2021/06/04 11:18:31;;;;;;;7.97;7.17;;;;;;;20.54;100.00;156645.59;5053257;28;20463;-90
2021/06/04 11:21:15;;;;;;;8.53;7.60;;;;;;;20.60;100.00;156661.28;5051489;28;20442;-90
2021/06/04 11:23:54;;;;;;;9.63;7.30;;;;;;;20.71;100.00;156688.66;5052539;28;20439;-92
2021/06/04 11:26:33;;;;;;;9.40;7.57;;;;;;;20.83;100.00;156718.69;5040596;28;20815;-91
2021/06/04 11:29:10;;;;;;;8.83;7.70;;;;;;;20.92;100.00;156742.16;5084607;28;20471;-90
2021/06/04 11:31:53;;;;;;;11.80;8.53;;;;;;;21.02;100.00;156768.28;5039527;28;20434;-89
2021/06/04 11:34:41;;;;;;;8.80;8.00;;;;;;;21.06;100.00;156778.69;5104978;28;20459;-88
2021/06/04 11:37:22;;;;;;;11.57;8.23;;;;;;;21.15;100.00;156803.53;5072496;28;20436;-88
2021/06/04 11:40:05;;;;;;;9.67;8.77;;;;;;;21.23;100.00;156824.41;5088449;28;20442;-89
2021/06/04 11:42:48;;;;;;;10.73;7.73;;;;;;;21.22;100.00;156821.84;5054295;28;20536;-89
2021/06/04 11:45:27;;;;;;;7.10;5.83;;;;;;;21.01;100.00;156765.66;5104716;28;20431;-89
2021/06/04 11:48:39;;;;;;;7.77;6.60;;;;;;;21.09;100.00;156787.91;5105080;28;21016;-88
2021/06/04 11:51:28;;;;;;;8.00;7.17;;;;;;;21.10;100.00;156789.22;5072239;28;20526;-89
2021/06/04 11:54:28;;;;;;;8.00;7.27;;;;;;;21.19;100.00;156812.69;5072520;28;20434;-89
2021/06/04 11:57:06;;;;;;;8.20;7.40;;;;;;;21.27;100.00;156832.25;5104619;28;20438;-88
2021/06/04 12:00:22;;;;;;;10.27;7.40;;;;;;;21.28;100.00;156836.19;5052502;28;20423;-89
2021/06/04 12:03:18;;;;;;;10.83;7.90;;;;;;;21.07;100.00;156782.69;5026019;28;20438;-87
2021/06/04 12:05:56;;;;;;;8.23;7.43;;;;;;;21.03;100.00;156772.19;5067420;28;20997;-87
2021/06/04 12:08:40;;;;;;;8.23;6.80;;;;;;;21.01;98.16;156765.66;5054946;28;20467;-87
2021/06/04 12:11:28;;;;;;;8.80;6.40;;;;;;;21.03;99.23;156770.88;5039552;28;20446;-87
2021/06/04 12:14:27;;;;;;;10.13;6.17;;;;;;;20.93;95.35;156744.78;5073080;28;20439;-87
2021/06/04 12:17:21;;;;;;;6.97;6.37;;;;;;;20.92;98.18;156743.47;5067784;28;20462;-87
2021/06/04 12:20:21;;;;;;;8.53;7.07;;;;;;;20.97;100.00;156755.25;5087508;28;20451;-87
2021/06/04 12:22:59;;;;;;;8.10;7.30;;;;;;;20.99;100.00;156760.44;5088124;28;20459;-87